No particular awareness of the weather is required.    There are no Weather-warnings


Meteo18 Weather Cam more information Meteo18 Weather Cam


Thunder radar more information blitzortung!


Rain radar more information rain snow radar


Visit our other weather sites:

Template documentation
and downloads

And another site



Weather Underground History page Text

Daily Summary for March 3, 2018 Units:  Both    English   Metric
« Previous Day
Next Day »
Daily Weekly Monthly Yearly Custom
  High: Low: Average:
Temperature: TemperatureC °F /  -17.8 °C 1.7 °F /  -16.8 °C 6 °F /  -14.4 °C
Dew Point: DewpointC °F /  -17.8 °C -1.5 °F /  -18.6 °C 3 °F /  -16.1 °C
Humidity: Humidity % 61 % 81 %
Wind Speed: WindSpeedKMH mph /  0 km/h - 4.3 mph /  6.9 km/h
Wind Gust: WindSpeedGustKMH mph /  0 km/h - -
Wind:- - South
Pressure: PressurehPa in /  0 hPa 990.1 in /  33524.8 hPa -
Precipitation: 1.5 in /  38.1 mm    
Historical Graphs
 
 
Tabular Data for March 3, 2018
Time Temperature Dew Point Pressure Wind Wind Speed Wind Gust Humidity Rainfall Rate (Hourly)
TemperatureC °F /  -17.8 °C DewpointC °F /  -17.8 °C PressurehPa in /  0 hPa Calm     Humidity % HourlyPrecipMM in /  0 mm
00:00 1.8 °F /  -16.8 °C -1.5 °F /  -18.6 °C 993.5 in /  33639.9 hPa Calm   1.6 mph /  2.6 km/h 79 % 0.0 in /  0 mm
00:06 1.8 °F /  -16.8 °C -1.5 °F /  -18.6 °C 993.5 in /  33639.9 hPa NE 1.4 mph /  2.3 km/h 3.2 mph /  5.1 km/h 79 % 0.0 in /  0 mm
00:12 1.8 °F /  -16.8 °C -1.5 °F /  -18.6 °C 993.1 in /  33626.4 hPa NNE 3.2 mph /  5.1 km/h 6.4 mph /  10.3 km/h 79 % 0.0 in /  0 mm
00:18 1.7 °F /  -16.8 °C -1.4 °F /  -18.6 °C 993.1 in /  33626.4 hPa NNE 6.4 mph /  10.3 km/h 6.4 mph /  10.3 km/h 80 % 0.0 in /  0 mm
00:24 1.9 °F /  -16.7 °C -1.2 °F /  -18.4 °C 993.1 in /  33626.4 hPa NNE 3.2 mph /  5.1 km/h 6.4 mph /  10.3 km/h 80 % 0.0 in /  0 mm
00:31 2.1 °F /  -16.6 °C -1.2 °F /  -18.4 °C 993.1 in /  33626.4 hPa NE 1.4 mph /  2.3 km/h 4.8 mph /  7.7 km/h 79 % 0.0 in /  0 mm
00:37 2.1 °F /  -16.6 °C -1.2 °F /  -18.4 °C 993.1 in /  33626.4 hPa NNE 1.4 mph /  2.3 km/h 4.8 mph /  7.7 km/h 79 % 0.0 in /  0 mm
00:43 2.3 °F /  -16.5 °C -1.1 °F /  -18.4 °C 992.8 in /  33616.2 hPa ENE 4.7 mph /  7.6 km/h 6.4 mph /  10.3 km/h 78 % 0.0 in /  0 mm
00:49 2.3 °F /  -16.5 °C -1.1 °F /  -18.4 °C 992.8 in /  33616.2 hPa ENE 6.4 mph /  10.3 km/h 8.0 mph /  12.9 km/h 78 % 0.0 in /  0 mm
00:55 2.4 °F /  -16.4 °C -1.2 °F /  -18.4 °C 992.4 in /  33602.7 hPa ENE 3.2 mph /  5.1 km/h 9.7 mph /  15.6 km/h 77 % 0.0 in /  0 mm
01:01 2.7 °F /  -16.3 °C -0.9 °F /  -18.3 °C 992.4 in /  33602.7 hPa ENE 1.4 mph /  2.3 km/h 8.0 mph /  12.9 km/h 77 % 0.0 in /  0 mm
01:07 2.7 °F /  -16.3 °C -0.9 °F /  -18.3 °C 992.4 in /  33602.7 hPa ENE 1.4 mph /  2.3 km/h 6.4 mph /  10.3 km/h 77 % 0.0 in /  0 mm
01:13 2.7 °F /  -16.3 °C -0.9 °F /  -18.3 °C 992.8 in /  33616.2 hPa ENE 4.7 mph /  7.6 km/h 6.4 mph /  10.3 km/h 77 % 0.0 in /  0 mm
01:19 2.7 °F /  -16.3 °C -1.1 °F /  -18.4 °C 992.4 in /  33602.7 hPa ENE 1.4 mph /  2.3 km/h 3.2 mph /  5.1 km/h 76 % 0.0 in /  0 mm
01:25 2.7 °F /  -16.3 °C -1.1 °F /  -18.4 °C 992.8 in /  33616.2 hPa ENE 1.4 mph /  2.3 km/h 4.8 mph /  7.7 km/h 76 % 0.0 in /  0 mm
01:31 2.6 °F /  -16.3 °C -1.0 °F /  -18.3 °C 992.8 in /  33616.2 hPa Calm   4.8 mph /  7.7 km/h 77 % 0.0 in /  0 mm
01:37 2.6 °F /  -16.3 °C -1.0 °F /  -18.3 °C 992.8 in /  33616.2 hPa ENE 7.9 mph /  12.7 km/h 8.0 mph /  12.9 km/h 77 % 0.0 in /  0 mm
01:43 2.6 °F /  -16.3 °C -1.0 °F /  -18.3 °C 992.4 in /  33602.7 hPa NE 4.7 mph /  7.6 km/h 8.0 mph /  12.9 km/h 77 % 0.0 in /  0 mm
01:49 2.6 °F /  -16.3 °C -1.0 °F /  -18.3 °C 992.4 in /  33602.7 hPa NNE 4.7 mph /  7.6 km/h 8.0 mph /  12.9 km/h 77 % 0.0 in /  0 mm
01:55 2.6 °F /  -16.3 °C -1.0 °F /  -18.3 °C 992.4 in /  33602.7 hPa NNE 6.4 mph /  10.3 km/h 8.0 mph /  12.9 km/h 77 % 0.0 in /  0 mm
02:01 2.6 °F /  -16.3 °C -1.0 °F /  -18.3 °C 992.1 in /  33592.5 hPa NNE 4.7 mph /  7.6 km/h 11.3 mph /  18.2 km/h 77 % 0.0 in /  0 mm
02:07 2.7 °F /  -16.3 °C -0.9 °F /  -18.3 °C 992.1 in /  33592.5 hPa NE 6.4 mph /  10.3 km/h 9.7 mph /  15.6 km/h 77 % 0.0 in /  0 mm
02:13 2.9 °F /  -16.2 °C -0.9 °F /  -18.3 °C 991.8 in /  33582.3 hPa NE 3.2 mph /  5.1 km/h 9.7 mph /  15.6 km/h 76 % 0.0 in /  0 mm
02:19 2.8 °F /  -16.2 °C -1.0 °F /  -18.3 °C 991.8 in /  33582.3 hPa NE 4.7 mph /  7.6 km/h 6.4 mph /  10.3 km/h 76 % 0.0 in /  0 mm
02:25 2.8 °F /  -16.2 °C -1.0 °F /  -18.3 °C 991.8 in /  33582.3 hPa NE 1.4 mph /  2.3 km/h 4.8 mph /  7.7 km/h 76 % 0.0 in /  0 mm
02:31 2.7 °F /  -16.3 °C -0.9 °F /  -18.3 °C 991.4 in /  33568.8 hPa NE 3.2 mph /  5.1 km/h 8.0 mph /  12.9 km/h 77 % 0.0 in /  0 mm
02:37 2.8 °F /  -16.2 °C -0.8 °F /  -18.2 °C 991.4 in /  33568.8 hPa ENE 1.4 mph /  2.3 km/h 4.8 mph /  7.7 km/h 77 % 0.0 in /  0 mm
02:43 2.8 °F /  -16.2 °C -0.8 °F /  -18.2 °C 991.1 in /  33558.6 hPa NE 4.7 mph /  7.6 km/h 9.7 mph /  15.6 km/h 77 % 0.0 in /  0 mm
02:49 2.9 °F /  -16.2 °C -0.7 °F /  -18.2 °C 991.4 in /  33568.8 hPa Calm   3.2 mph /  5.1 km/h 77 % 0.0 in /  0 mm
02:55 2.9 °F /  -16.2 °C -0.9 °F /  -18.3 °C 991.4 in /  33568.8 hPa NE 1.4 mph /  2.3 km/h 1.6 mph /  2.6 km/h 76 % 0.0 in /  0 mm
03:01 3.1 °F /  -16.1 °C -0.7 °F /  -18.2 °C 991.4 in /  33568.8 hPa NE 3.2 mph /  5.1 km/h 6.4 mph /  10.3 km/h 76 % 0.0 in /  0 mm
03:07 3.1 °F /  -16.1 °C -0.9 °F /  -18.3 °C 991.4 in /  33568.8 hPa Calm   1.6 mph /  2.6 km/h 75 % 0.0 in /  0 mm
03:13 3.0 °F /  -16.1 °C -0.8 °F /  -18.2 °C 991.1 in /  33558.6 hPa NE 4.7 mph /  7.6 km/h 8.0 mph /  12.9 km/h 76 % 0.0 in /  0 mm
03:19 2.9 °F /  -16.2 °C -0.7 °F /  -18.2 °C 991.1 in /  33558.6 hPa NNE 4.7 mph /  7.6 km/h 8.0 mph /  12.9 km/h 77 % 0.0 in /  0 mm
03:25 2.7 °F /  -16.3 °C -0.9 °F /  -18.3 °C 991.1 in /  33558.6 hPa NE 4.7 mph /  7.6 km/h 9.7 mph /  15.6 km/h 77 % 0.0 in /  0 mm
03:31 2.6 °F /  -16.3 °C -0.8 °F /  -18.2 °C 991.1 in /  33558.6 hPa NNE 6.4 mph /  10.3 km/h 8.0 mph /  12.9 km/h 78 % 0.0 in /  0 mm
03:37 2.6 °F /  -16.3 °C -0.8 °F /  -18.2 °C 990.7 in /  33545.1 hPa NE 6.4 mph /  10.3 km/h 9.7 mph /  15.6 km/h 78 % 0.0 in /  0 mm
03:43 2.7 °F /  -16.3 °C -0.8 °F /  -18.2 °C 990.7 in /  33545.1 hPa NE 3.2 mph /  5.1 km/h 8.0 mph /  12.9 km/h 78 % 0.0 in /  0 mm
03:49 2.7 °F /  -16.3 °C -0.8 °F /  -18.2 °C 990.7 in /  33545.1 hPa NE 7.9 mph /  12.7 km/h 8.0 mph /  12.9 km/h 78 % 0.0 in /  0 mm
03:55 2.8 °F /  -16.2 °C -0.8 °F /  -18.2 °C 990.7 in /  33545.1 hPa NNE 3.2 mph /  5.1 km/h 6.4 mph /  10.3 km/h 77 % 0.0 in /  0 mm
04:01 2.8 °F /  -16.2 °C -0.8 °F /  -18.2 °C 990.4 in /  33534.9 hPa ENE 3.2 mph /  5.1 km/h 8.0 mph /  12.9 km/h 77 % 0.0 in /  0 mm
04:07 2.7 °F /  -16.3 °C -0.8 °F /  -18.2 °C 990.4 in /  33534.9 hPa Calm   4.8 mph /  7.7 km/h 78 % 0.0 in /  0 mm
04:13 2.6 °F /  -16.3 °C -0.7 °F /  -18.2 °C 990.4 in /  33534.9 hPa Calm   1.6 mph /  2.6 km/h 79 % 0.0 in /  0 mm
04:19 2.5 °F /  -16.4 °C -0.8 °F /  -18.2 °C 990.4 in /  33534.9 hPa ENE 1.4 mph /  2.3 km/h 3.2 mph /  5.1 km/h 79 % 0.0 in /  0 mm
04:25 2.5 °F /  -16.4 °C -0.8 °F /  -18.2 °C 990.1 in /  33524.8 hPa ENE 3.2 mph /  5.1 km/h 4.8 mph /  7.7 km/h 79 % 0.0 in /  0 mm
04:31 2.4 °F /  -16.4 °C -0.7 °F /  -18.2 °C 990.1 in /  33524.8 hPa NE 1.4 mph /  2.3 km/h 4.8 mph /  7.7 km/h 80 % 0.0 in /  0 mm
04:37 2.3 °F /  -16.5 °C -0.8 °F /  -18.2 °C 990.1 in /  33524.8 hPa NE 3.2 mph /  5.1 km/h 3.2 mph /  5.1 km/h 80 % 0.0 in /  0 mm
04:43 2.3 °F /  -16.5 °C -0.6 °F /  -18.1 °C 990.1 in /  33524.8 hPa ENE 1.4 mph /  2.3 km/h 4.8 mph /  7.7 km/h 81 % 0.0 in /  0 mm
04:49 2.4 °F /  -16.4 °C -0.5 °F /  -18.1 °C 990.1 in /  33524.8 hPa ENE 1.4 mph /  2.3 km/h 3.2 mph /  5.1 km/h 81 % 0.0 in /  0 mm
04:55 2.4 °F /  -16.4 °C -0.7 °F /  -18.2 °C 990.1 in /  33524.8 hPa Calm   1.6 mph /  2.6 km/h 80 % 0.0 in /  0 mm
05:01 2.4 °F /  -16.4 °C -0.7 °F /  -18.2 °C 990.1 in /  33524.8 hPa NNE 1.4 mph /  2.3 km/h 3.2 mph /  5.1 km/h 80 % 0.0 in /  0 mm
05:07 2.5 °F /  -16.4 °C -0.6 °F /  -18.1 °C 990.1 in /  33524.8 hPa Calm   1.6 mph /  2.6 km/h 80 % 0.0 in /  0 mm
05:13 2.3 °F /  -16.5 °C -0.6 °F /  -18.1 °C 990.1 in /  33524.8 hPa Calm   1.6 mph /  2.6 km/h 81 % 0.0 in /  0 mm
05:19 2.3 °F /  -16.5 °C -0.6 °F /  -18.1 °C 990.1 in /  33524.8 hPa Calm     81 % 0.0 in /  0 mm
05:26 2.4 °F /  -16.4 °C -0.5 °F /  -18.1 °C 990.1 in /  33524.8 hPa Calm     81 % 0.0 in /  0 mm
05:32 2.4 °F /  -16.4 °C -0.7 °F /  -18.2 °C 990.1 in /  33524.8 hPa Calm     80 % 0.0 in /  0 mm
05:38 2.6 °F /  -16.3 °C -0.7 °F /  -18.2 °C 990.1 in /  33524.8 hPa Calm     79 % 0.0 in /  0 mm
05:44 2.4 °F /  -16.4 °C -0.5 °F /  -18.1 °C 990.1 in /  33524.8 hPa Calm     81 % 0.0 in /  0 mm
05:50 2.4 °F /  -16.4 °C -0.5 °F /  -18.1 °C 990.1 in /  33524.8 hPa Calm     81 % 0.0 in /  0 mm
05:56 2.6 °F /  -16.3 °C -0.3 °F /  -17.9 °C 990.1 in /  33524.8 hPa Calm     81 % 0.0 in /  0 mm
06:02 2.6 °F /  -16.3 °C -0.3 °F /  -17.9 °C 990.1 in /  33524.8 hPa Calm     81 % 0.0 in /  0 mm
06:08 2.6 °F /  -16.3 °C -0.2 °F /  -17.9 °C 990.1 in /  33524.8 hPa Calm     82 % 0.0 in /  0 mm
06:14 2.6 °F /  -16.3 °C -0.2 °F /  -17.9 °C 990.1 in /  33524.8 hPa Calm     82 % 0.3 in /  7.62 mm
06:20 2.5 °F /  -16.4 °C 0.1 °F /  -17.7 °C 990.1 in /  33524.8 hPa Calm   1.6 mph /  2.6 km/h 84 % 0.3 in /  7.62 mm
06:26 2.4 °F /  -16.4 °C 0.3 °F /  -17.6 °C 990.1 in /  33524.8 hPa Calm   1.6 mph /  2.6 km/h 86 % 0.3 in /  7.62 mm
06:32 2.3 °F /  -16.5 °C 0.5 °F /  -17.5 °C 990.1 in /  33524.8 hPa Calm   1.6 mph /  2.6 km/h 88 % 0.3 in /  7.62 mm
06:38 2.2 °F /  -16.6 °C 0.6 °F /  -17.4 °C 990.1 in /  33524.8 hPa Calm     89 % 0.5 in /  12.7 mm
06:44 2.2 °F /  -16.6 °C 0.7 °F /  -17.4 °C 990.1 in /  33524.8 hPa Calm   1.6 mph /  2.6 km/h 90 % 0.5 in /  12.7 mm
06:50 2.2 °F /  -16.6 °C 0.7 °F /  -17.4 °C 990.1 in /  33524.8 hPa Calm   1.6 mph /  2.6 km/h 90 % 0.5 in /  12.7 mm
06:56 2.2 °F /  -16.6 °C 0.9 °F /  -17.3 °C 990.1 in /  33524.8 hPa Calm     91 % 0.5 in /  12.7 mm
07:02 2.2 °F /  -16.6 °C 0.9 °F /  -17.3 °C 990.1 in /  33524.8 hPa SSW 1.4 mph /  2.3 km/h 1.6 mph /  2.6 km/h 91 % 0.5 in /  12.7 mm
07:08 2.2 °F /  -16.6 °C 0.9 °F /  -17.3 °C 990.1 in /  33524.8 hPa Calm   1.6 mph /  2.6 km/h 91 % 0.5 in /  12.7 mm
07:14 2.1 °F /  -16.6 °C 0.9 °F /  -17.3 °C 990.1 in /  33524.8 hPa SSW 1.4 mph /  2.3 km/h 1.6 mph /  2.6 km/h 92 % 0.3 in /  7.62 mm
07:20 2.0 °F /  -16.7 °C 0.8 °F /  -17.3 °C 990.1 in /  33524.8 hPa Calm   1.6 mph /  2.6 km/h 92 % 0.3 in /  7.62 mm
07:26 2.0 °F /  -16.7 °C 0.8 °F /  -17.3 °C 990.1 in /  33524.8 hPa Calm   1.6 mph /  2.6 km/h 92 % 0.3 in /  7.62 mm
07:32 1.9 °F /  -16.7 °C 0.7 °F /  -17.4 °C 990.1 in /  33524.8 hPa Calm   1.6 mph /  2.6 km/h 92 % 0.0 in /  0 mm
07:38 1.9 °F /  -16.7 °C 0.7 °F /  -17.4 °C 990.1 in /  33524.8 hPa Calm     92 % 0.0 in /  0 mm
07:44 1.9 °F /  -16.7 °C 0.9 °F /  -17.3 °C 990.4 in /  33534.9 hPa Calm   1.6 mph /  2.6 km/h 93 % 0.0 in /  0 mm
07:50 2.0 °F /  -16.7 °C 1.0 °F /  -17.2 °C 990.4 in /  33534.9 hPa Calm     93 % 0.0 in /  0 mm
07:56 2.1 °F /  -16.6 °C 1.1 °F /  -17.2 °C 990.4 in /  33534.9 hPa Calm     93 % 0.3 in /  7.62 mm
08:03 2.2 °F /  -16.6 °C 1.2 °F /  -17.1 °C 990.4 in /  33534.9 hPa Calm     93 % 0.3 in /  7.62 mm
08:09 2.2 °F /  -16.6 °C 1.2 °F /  -17.1 °C 990.4 in /  33534.9 hPa Calm     93 % 0.3 in /  7.62 mm
08:15 2.2 °F /  -16.6 °C 1.2 °F /  -17.1 °C 990.7 in /  33545.1 hPa WNW 1.4 mph /  2.3 km/h 1.6 mph /  2.6 km/h 93 % 0.3 in /  7.62 mm
08:21 2.3 °F /  -16.5 °C 1.3 °F /  -17.1 °C 990.7 in /  33545.1 hPa Calm     93 % 0.3 in /  7.62 mm
08:27 2.4 °F /  -16.4 °C 1.4 °F /  -17 °C 990.7 in /  33545.1 hPa Calm   1.6 mph /  2.6 km/h 93 % 0.3 in /  7.62 mm
08:33 2.5 °F /  -16.4 °C 1.5 °F /  -16.9 °C 990.7 in /  33545.1 hPa Calm     93 % 0.5 in /  12.7 mm
08:39 2.6 °F /  -16.3 °C 1.7 °F /  -16.8 °C 990.7 in /  33545.1 hPa Calm     94 % 0.5 in /  12.7 mm
08:45 2.8 °F /  -16.2 °C 1.8 °F /  -16.8 °C 990.7 in /  33545.1 hPa Calm     93 % 0.5 in /  12.7 mm
08:51 2.9 °F /  -16.2 °C 1.9 °F /  -16.7 °C 990.7 in /  33545.1 hPa Calm     93 % 0.5 in /  12.7 mm
08:57 3.0 °F /  -16.1 °C 2.0 °F /  -16.7 °C 990.7 in /  33545.1 hPa Calm   1.6 mph /  2.6 km/h 93 % 0.5 in /  12.7 mm
09:03 3.1 °F /  -16.1 °C 2.1 °F /  -16.6 °C 991.1 in /  33558.6 hPa Calm   1.6 mph /  2.6 km/h 93 % 0.5 in /  12.7 mm
09:09 3.1 °F /  -16.1 °C 2.1 °F /  -16.6 °C 991.1 in /  33558.6 hPa Calm     93 % 0.5 in /  12.7 mm
09:15 3.1 °F /  -16.1 °C 2.1 °F /  -16.6 °C 991.1 in /  33558.6 hPa Calm     93 % 0.5 in /  12.7 mm
09:21 3.1 °F /  -16.1 °C 2.1 °F /  -16.6 °C 991.1 in /  33558.6 hPa Calm   1.6 mph /  2.6 km/h 93 % 0.5 in /  12.7 mm
09:29 3.2 °F /  -16 °C 2.3 °F /  -16.5 °C 991.1 in /  33558.6 hPa Calm     94 % 0.5 in /  12.7 mm
09:35 3.2 °F /  -16 °C 2.3 °F /  -16.5 °C 991.4 in /  33568.8 hPa Calm     94 % 0.5 in /  12.7 mm
09:41 3.2 °F /  -16 °C 2.2 °F /  -16.6 °C 991.4 in /  33568.8 hPa Calm     93 % 0.5 in /  12.7 mm
09:47 3.2 °F /  -16 °C 2.3 °F /  -16.5 °C 991.4 in /  33568.8 hPa Calm     94 % 0.5 in /  12.7 mm
09:53 3.2 °F /  -16 °C 2.3 °F /  -16.5 °C 991.4 in /  33568.8 hPa Calm   1.6 mph /  2.6 km/h 94 % 0.5 in /  12.7 mm
09:59 3.1 °F /  -16.1 °C 2.2 °F /  -16.6 °C 991.4 in /  33568.8 hPa Calm     94 % 0.5 in /  12.7 mm
10:06 3.1 °F /  -16.1 °C 2.2 °F /  -16.6 °C 991.4 in /  33568.8 hPa Calm   1.6 mph /  2.6 km/h 94 % 0.5 in /  12.7 mm
10:14 3.2 °F /  -16 °C 2.3 °F /  -16.5 °C 991.4 in /  33568.8 hPa Calm     94 % 0.3 in /  7.62 mm
10:20 3.3 °F /  -15.9 °C 2.6 °F /  -16.3 °C 991.4 in /  33568.8 hPa Calm     95 % 0.3 in /  7.62 mm
10:26 3.6 °F /  -15.8 °C 2.9 °F /  -16.2 °C 991.4 in /  33568.8 hPa Calm     95 % 0.3 in /  7.62 mm
10:32 3.8 °F /  -15.7 °C 3.1 °F /  -16.1 °C 991.8 in /  33582.3 hPa Calm   1.6 mph /  2.6 km/h 95 % 0.3 in /  7.62 mm
10:38 3.9 °F /  -15.6 °C 3.0 °F /  -16.1 °C 991.8 in /  33582.3 hPa Calm   1.6 mph /  2.6 km/h 94 % 0.3 in /  7.62 mm
10:44 4.1 °F /  -15.5 °C 3.4 °F /  -15.9 °C 991.8 in /  33582.3 hPa Calm     95 % 0.0 in /  0 mm
10:50 4.2 °F /  -15.4 °C 3.5 °F /  -15.8 °C 992.1 in /  33592.5 hPa Calm   1.6 mph /  2.6 km/h 95 % 0.0 in /  0 mm
10:56 4.3 °F /  -15.4 °C 3.6 °F /  -15.8 °C 992.1 in /  33592.5 hPa Calm     95 % 0.0 in /  0 mm
11:02 4.4 °F /  -15.3 °C 3.7 °F /  -15.7 °C 992.1 in /  33592.5 hPa SSW 1.4 mph /  2.3 km/h 1.6 mph /  2.6 km/h 95 % 0.0 in /  0 mm
11:08 4.7 °F /  -15.2 °C 4.0 °F /  -15.6 °C 992.1 in /  33592.5 hPa Calm   3.2 mph /  5.1 km/h 95 % 0.0 in /  0 mm
11:14 5.0 °F /  -15 °C 4.4 °F /  -15.3 °C 992.4 in /  33602.7 hPa SW 3.2 mph /  5.1 km/h 8.0 mph /  12.9 km/h 96 % 0.0 in /  0 mm
11:20 5.3 °F /  -14.8 °C 4.7 °F /  -15.2 °C 992.4 in /  33602.7 hPa SW 3.2 mph /  5.1 km/h 6.4 mph /  10.3 km/h 96 % 0.0 in /  0 mm
11:26 5.6 °F /  -14.7 °C 5.0 °F /  -15 °C 992.4 in /  33602.7 hPa WSW 11.1 mph /  17.9 km/h 17.7 mph /  28.5 km/h 96 % 0.0 in /  0 mm
11:32 6.0 °F /  -14.4 °C 5.4 °F /  -14.8 °C 992.4 in /  33602.7 hPa SW 4.7 mph /  7.6 km/h 14.5 mph /  23.3 km/h 96 % 0.0 in /  0 mm
11:38 6.3 °F /  -14.3 °C 5.6 °F /  -14.7 °C 992.4 in /  33602.7 hPa WSW 9.7 mph /  15.6 km/h 16.1 mph /  25.9 km/h 95 % 0.0 in /  0 mm
11:44 6.7 °F /  -14.1 °C 6.0 °F /  -14.4 °C 992.8 in /  33616.2 hPa West 4.7 mph /  7.6 km/h 11.3 mph /  18.2 km/h 95 % 0.0 in /  0 mm
11:50 7.1 °F /  -13.8 °C 6.4 °F /  -14.2 °C 992.8 in /  33616.2 hPa WNW 11.1 mph /  17.9 km/h 16.1 mph /  25.9 km/h 95 % 0.0 in /  0 mm
11:56 7.3 °F /  -13.7 °C 6.2 °F /  -14.3 °C 992.8 in /  33616.2 hPa WNW 9.7 mph /  15.6 km/h 22.5 mph /  36.2 km/h 93 % 0.0 in /  0 mm
12:02 7.7 °F /  -13.5 °C 6.6 °F /  -14.1 °C 992.8 in /  33616.2 hPa WSW 16.3 mph /  26.2 km/h 24.1 mph /  38.8 km/h 93 % 0.0 in /  0 mm
12:08 8.0 °F /  -13.3 °C 6.8 °F /  -14 °C 992.8 in /  33616.2 hPa West 17.7 mph /  28.5 km/h 22.5 mph /  36.2 km/h 92 % 0.0 in /  0 mm
12:14 8.3 °F /  -13.2 °C 6.9 °F /  -13.9 °C 992.8 in /  33616.2 hPa West 13.0 mph /  20.9 km/h 20.9 mph /  33.6 km/h 91 % 0.0 in /  0 mm
12:20 8.7 °F /  -12.9 °C 7.3 °F /  -13.7 °C 992.8 in /  33616.2 hPa WSW 16.3 mph /  26.2 km/h 16.3 mph /  26.2 km/h 91 % 0.0 in /  0 mm
12:26 9.0 °F /  -12.8 °C 7.4 °F /  -13.7 °C 993.1 in /  33626.4 hPa West 9.7 mph /  15.6 km/h 17.7 mph /  28.5 km/h 90 % 0.0 in /  0 mm
12:32 9.2 °F /  -12.7 °C 7.5 °F /  -13.6 °C 993.1 in /  33626.4 hPa WSW 6.4 mph /  10.3 km/h 22.5 mph /  36.2 km/h 89 % 0.0 in /  0 mm
12:38 9.1 °F /  -12.7 °C 7.2 °F /  -13.8 °C 993.1 in /  33626.4 hPa West 7.9 mph /  12.7 km/h 14.5 mph /  23.3 km/h 88 % 0.0 in /  0 mm
12:44 9.1 °F /  -12.7 °C 7.2 °F /  -13.8 °C 993.1 in /  33626.4 hPa West 11.1 mph /  17.9 km/h 11.3 mph /  18.2 km/h 88 % 0.0 in /  0 mm
12:50 9.1 °F /  -12.7 °C 7.2 °F /  -13.8 °C 993.5 in /  33639.9 hPa West 7.9 mph /  12.7 km/h 12.9 mph /  20.8 km/h 88 % 0.0 in /  0 mm
12:56 9.2 °F /  -12.7 °C 7.1 °F /  -13.8 °C 993.1 in /  33626.4 hPa WSW 4.7 mph /  7.6 km/h 12.9 mph /  20.8 km/h 87 % 0.0 in /  0 mm
13:02 9.6 °F /  -12.4 °C 7.4 °F /  -13.7 °C 993.5 in /  33639.9 hPa WSW 13.0 mph /  20.9 km/h 13.0 mph /  20.9 km/h 86 % 0.0 in /  0 mm
13:08 9.9 °F /  -12.3 °C 7.1 °F /  -13.8 °C 993.5 in /  33639.9 hPa SSW 9.7 mph /  15.6 km/h 19.3 mph /  31.1 km/h 83 % 0.0 in /  0 mm
13:14 10.3 °F /  -12.1 °C 6.8 °F /  -14 °C 993.5 in /  33639.9 hPa West 16.3 mph /  26.2 km/h 24.1 mph /  38.8 km/h 79 % 0.0 in /  0 mm
13:20 10.7 °F /  -11.8 °C 7.0 °F /  -13.9 °C 993.5 in /  33639.9 hPa West 11.1 mph /  17.9 km/h 17.7 mph /  28.5 km/h 78 % 0.0 in /  0 mm
13:26 10.9 °F /  -11.7 °C 7.2 °F /  -13.8 °C 993.5 in /  33639.9 hPa West 9.7 mph /  15.6 km/h 19.3 mph /  31.1 km/h 78 % 0.0 in /  0 mm
13:32 10.9 °F /  -11.7 °C 6.6 °F /  -14.1 °C 993.5 in /  33639.9 hPa WNW 13.0 mph /  20.9 km/h 20.9 mph /  33.6 km/h 75 % 0.0 in /  0 mm
13:38 10.9 °F /  -11.7 °C 6.4 °F /  -14.2 °C 993.8 in /  33650.1 hPa West 7.9 mph /  12.7 km/h 24.1 mph /  38.8 km/h 74 % 0.0 in /  0 mm
13:44 10.9 °F /  -11.7 °C 6.6 °F /  -14.1 °C 993.8 in /  33650.1 hPa WSW 9.7 mph /  15.6 km/h 16.1 mph /  25.9 km/h 75 % 0.0 in /  0 mm
13:50 11.3 °F /  -11.5 °C 6.8 °F /  -14 °C 993.8 in /  33650.1 hPa West 13.0 mph /  20.9 km/h 17.7 mph /  28.5 km/h 74 % 0.0 in /  0 mm
13:56 11.6 °F /  -11.3 °C 6.1 °F /  -14.4 °C 993.8 in /  33650.1 hPa West 17.7 mph /  28.5 km/h 38.6 mph /  62.1 km/h 69 % 0.0 in /  0 mm
14:02 11.7 °F /  -11.3 °C 6.4 °F /  -14.2 °C 993.8 in /  33650.1 hPa West 22.7 mph /  36.5 km/h 25.7 mph /  41.4 km/h 70 % 0.0 in /  0 mm
14:08 11.9 °F /  -11.2 °C 6.6 °F /  -14.1 °C 993.8 in /  33650.1 hPa WSW 13.0 mph /  20.9 km/h 30.6 mph /  49.2 km/h 70 % 0.0 in /  0 mm
14:14 12.1 °F /  -11.1 °C 5.3 °F /  -14.8 °C 993.8 in /  33650.1 hPa West 20.9 mph /  33.6 km/h 48.3 mph /  77.7 km/h 63 % 0.0 in /  0 mm
14:20 12.3 °F /  -10.9 °C 6.3 °F /  -14.3 °C 993.8 in /  33650.1 hPa WSW 17.7 mph /  28.5 km/h 32.2 mph /  51.8 km/h 67 % 0.0 in /  0 mm
14:26 12.4 °F /  -10.9 °C 5.8 °F /  -14.6 °C 993.8 in /  33650.1 hPa WSW 22.7 mph /  36.5 km/h 30.6 mph /  49.2 km/h 64 % 0.0 in /  0 mm
14:32 12.3 °F /  -10.9 °C 5.2 °F /  -14.9 °C 993.8 in /  33650.1 hPa WSW 7.9 mph /  12.7 km/h 33.8 mph /  54.4 km/h 62 % 0.0 in /  0 mm
14:38 12.3 °F /  -10.9 °C 5.5 °F /  -14.7 °C 994.1 in /  33660.2 hPa West 13.0 mph /  20.9 km/h 25.7 mph /  41.4 km/h 63 % 0.0 in /  0 mm
14:44 12.2 °F /  -11 °C 5.8 °F /  -14.6 °C 993.8 in /  33650.1 hPa West 9.7 mph /  15.6 km/h 25.7 mph /  41.4 km/h 65 % 0.0 in /  0 mm
14:50 12.1 °F /  -11.1 °C 5.5 °F /  -14.7 °C 993.8 in /  33650.1 hPa West 22.7 mph /  36.5 km/h 25.7 mph /  41.4 km/h 64 % 0.0 in /  0 mm
14:56 12.4 °F /  -10.9 °C 6.2 °F /  -14.3 °C 993.8 in /  33650.1 hPa West 9.7 mph /  15.6 km/h 19.3 mph /  31.1 km/h 66 % 0.0 in /  0 mm
15:02 12.5 °F /  -10.8 °C 5.2 °F /  -14.9 °C 994.1 in /  33660.2 hPa WSW 19.5 mph /  31.4 km/h 25.7 mph /  41.4 km/h 61 % 0.0 in /  0 mm
15:08 12.7 °F /  -10.7 °C 5.6 °F /  -14.7 °C 994.1 in /  33660.2 hPa WSW 17.7 mph /  28.5 km/h 29.0 mph /  46.7 km/h 62 % 0.0 in /  0 mm
15:14 12.8 °F /  -10.7 °C 5.5 °F /  -14.7 °C 994.1 in /  33660.2 hPa SW 11.1 mph /  17.9 km/h 24.1 mph /  38.8 km/h 61 % 0.0 in /  0 mm
15:20 12.7 °F /  -10.7 °C 5.8 °F /  -14.6 °C 994.1 in /  33660.2 hPa SW 11.1 mph /  17.9 km/h 22.5 mph /  36.2 km/h 63 % 0.0 in /  0 mm
15:26 12.6 °F /  -10.8 °C 6.0 °F /  -14.4 °C 994.1 in /  33660.2 hPa WSW 6.4 mph /  10.3 km/h 32.2 mph /  51.8 km/h 64 % 0.0 in /  0 mm
15:32 12.6 °F /  -10.8 °C 6.0 °F /  -14.4 °C 994.1 in /  33660.2 hPa WSW 17.7 mph /  28.5 km/h 22.5 mph /  36.2 km/h 64 % 0.0 in /  0 mm
15:38 12.3 °F /  -10.9 °C 5.9 °F /  -14.5 °C 994.5 in /  33673.8 hPa SW 1.4 mph /  2.3 km/h 20.9 mph /  33.6 km/h 65 % 0.0 in /  0 mm
15:44 12.2 °F /  -11 °C 6.0 °F /  -14.4 °C 994.5 in /  33673.8 hPa West 6.4 mph /  10.3 km/h 16.1 mph /  25.9 km/h 66 % 0.0 in /  0 mm
15:50 11.9 °F /  -11.2 °C 6.0 °F /  -14.4 °C 994.8 in /  33683.9 hPa WSW 32.0 mph /  51.5 km/h 32.2 mph /  51.8 km/h 67 % 0.0 in /  0 mm
15:56 10.7 °F /  -11.8 °C 6.4 °F /  -14.2 °C 994.8 in /  33683.9 hPa West 22.7 mph /  36.5 km/h 30.6 mph /  49.2 km/h 75 % 0.3 in /  7.62 mm
16:02 10.4 °F /  -12 °C 6.5 °F /  -14.2 °C 994.8 in /  33683.9 hPa WNW 20.9 mph /  33.6 km/h 30.6 mph /  49.2 km/h 77 % 0.3 in /  7.62 mm
16:08 10.6 °F /  -11.9 °C 6.2 °F /  -14.3 °C 994.5 in /  33673.8 hPa West 7.9 mph /  12.7 km/h 20.9 mph /  33.6 km/h 74 % 0.3 in /  7.62 mm
16:14 11.1 °F /  -11.6 °C 6.6 °F /  -14.1 °C 994.5 in /  33673.8 hPa West 6.4 mph /  10.3 km/h 17.7 mph /  28.5 km/h 74 % 0.3 in /  7.62 mm
16:20 11.3 °F /  -11.5 °C 6.4 °F /  -14.2 °C 994.8 in /  33683.9 hPa WSW 11.1 mph /  17.9 km/h 24.1 mph /  38.8 km/h 72 % 0.3 in /  7.62 mm
16:26 11.6 °F /  -11.3 °C 6.3 °F /  -14.3 °C 994.8 in /  33683.9 hPa SW 14.3 mph /  23 km/h 27.4 mph /  44.1 km/h 70 % 0.3 in /  7.62 mm
16:32 11.8 °F /  -11.2 °C 5.9 °F /  -14.5 °C 994.8 in /  33683.9 hPa West 11.1 mph /  17.9 km/h 29.0 mph /  46.7 km/h 67 % 0.3 in /  7.62 mm
16:38 12.0 °F /  -11.1 °C 5.8 °F /  -14.6 °C 994.8 in /  33683.9 hPa WSW 11.1 mph /  17.9 km/h 25.7 mph /  41.4 km/h 66 % 0.3 in /  7.62 mm
16:44 12.1 °F /  -11.1 °C 5.7 °F /  -14.6 °C 994.8 in /  33683.9 hPa WNW 13.0 mph /  20.9 km/h 24.1 mph /  38.8 km/h 65 % 0.3 in /  7.62 mm
16:50 12.2 °F /  -11 °C 5.4 °F /  -14.8 °C 994.8 in /  33683.9 hPa SW 20.9 mph /  33.6 km/h 27.4 mph /  44.1 km/h 63 % 0.3 in /  7.62 mm
16:56 12.2 °F /  -11 °C 6.3 °F /  -14.3 °C 994.8 in /  33683.9 hPa SSW 14.3 mph /  23 km/h 19.3 mph /  31.1 km/h 67 % 0.0 in /  0 mm
17:02 12.0 °F /  -11.1 °C 5.8 °F /  -14.6 °C 995.1 in /  33694.1 hPa SW 13.0 mph /  20.9 km/h 24.1 mph /  38.8 km/h 66 % 0.0 in /  0 mm
17:08 12.1 °F /  -11.1 °C 5.5 °F /  -14.7 °C 995.1 in /  33694.1 hPa SW 9.7 mph /  15.6 km/h 29.0 mph /  46.7 km/h 64 % 0.0 in /  0 mm
17:14 12.1 °F /  -11.1 °C 5.7 °F /  -14.6 °C 995.1 in /  33694.1 hPa West 11.1 mph /  17.9 km/h 16.1 mph /  25.9 km/h 65 % 0.0 in /  0 mm
17:20 11.9 °F /  -11.2 °C 5.5 °F /  -14.7 °C 995.1 in /  33694.1 hPa SW 9.7 mph /  15.6 km/h 12.9 mph /  20.8 km/h 65 % 0.0 in /  0 mm
17:26 11.7 °F /  -11.3 °C 5.6 °F /  -14.7 °C 995.1 in /  33694.1 hPa WNW 11.1 mph /  17.9 km/h 12.9 mph /  20.8 km/h 66 % 0.0 in /  0 mm
17:32 11.5 °F /  -11.4 °C 5.6 °F /  -14.7 °C 995.1 in /  33694.1 hPa SW 13.0 mph /  20.9 km/h 13.0 mph /  20.9 km/h 67 % 0.0 in /  0 mm
17:38 11.3 °F /  -11.5 °C 6.0 °F /  -14.4 °C 995.1 in /  33694.1 hPa SW 6.4 mph /  10.3 km/h 8.0 mph /  12.9 km/h 70 % 0.0 in /  0 mm
17:45 11.3 °F /  -11.5 °C 6.0 °F /  -14.4 °C 995.5 in /  33707.6 hPa SW 4.7 mph /  7.6 km/h 6.4 mph /  10.3 km/h 70 % 0.0 in /  0 mm
17:51 11.4 °F /  -11.4 °C 6.1 °F /  -14.4 °C 995.5 in /  33707.6 hPa Calm   3.2 mph /  5.1 km/h 70 % 0.0 in /  0 mm
17:57 11.6 °F /  -11.3 °C 6.3 °F /  -14.3 °C 995.5 in /  33707.6 hPa SW 1.4 mph /  2.3 km/h 4.8 mph /  7.7 km/h 70 % 0.0 in /  0 mm
18:03 11.7 °F /  -11.3 °C 5.8 °F /  -14.6 °C 995.5 in /  33707.6 hPa Calm   8.0 mph /  12.9 km/h 67 % 0.0 in /  0 mm
18:09 11.6 °F /  -11.3 °C 5.9 °F /  -14.5 °C 995.5 in /  33707.6 hPa WSW 1.4 mph /  2.3 km/h 3.2 mph /  5.1 km/h 68 % 0.0 in /  0 mm
18:15 11.4 °F /  -11.4 °C 5.5 °F /  -14.7 °C 995.5 in /  33707.6 hPa SW 1.4 mph /  2.3 km/h 3.2 mph /  5.1 km/h 67 % 0.0 in /  0 mm
18:21 11.3 °F /  -11.5 °C 5.4 °F /  -14.8 °C 995.5 in /  33707.6 hPa SSW 1.4 mph /  2.3 km/h 4.8 mph /  7.7 km/h 67 % 0.0 in /  0 mm
18:27 11.0 °F /  -11.7 °C 5.5 °F /  -14.7 °C 995.5 in /  33707.6 hPa SW 3.2 mph /  5.1 km/h 3.2 mph /  5.1 km/h 69 % 0.0 in /  0 mm
18:33 10.5 °F /  -11.9 °C 5.7 °F /  -14.6 °C 995.8 in /  33717.8 hPa SE 3.2 mph /  5.1 km/h 3.2 mph /  5.1 km/h 72 % 0.0 in /  0 mm
18:39 9.8 °F /  -12.3 °C 5.6 °F /  -14.7 °C 995.8 in /  33717.8 hPa SSW 3.2 mph /  5.1 km/h 3.2 mph /  5.1 km/h 75 % 0.0 in /  0 mm
18:45 9.1 °F /  -12.7 °C 5.5 °F /  -14.7 °C 995.8 in /  33717.8 hPa SSW 1.4 mph /  2.3 km/h 3.2 mph /  5.1 km/h 78 % 0.0 in /  0 mm
18:51 8.8 °F /  -12.9 °C 5.5 °F /  -14.7 °C 996.2 in /  33731.3 hPa South 3.2 mph /  5.1 km/h 3.2 mph /  5.1 km/h 80 % 0.0 in /  0 mm
18:57 8.5 °F /  -13.1 °C 5.4 °F /  -14.8 °C 996.2 in /  33731.3 hPa SSW 3.2 mph /  5.1 km/h 4.8 mph /  7.7 km/h 81 % 0.0 in /  0 mm
19:03 8.4 °F /  -13.1 °C 5.5 °F /  -14.7 °C 996.2 in /  33731.3 hPa South 1.4 mph /  2.3 km/h 4.8 mph /  7.7 km/h 82 % 0.0 in /  0 mm
19:09 8.2 °F /  -13.2 °C 5.3 °F /  -14.8 °C 996.2 in /  33731.3 hPa South 1.4 mph /  2.3 km/h 1.6 mph /  2.6 km/h 82 % 0.0 in /  0 mm
19:15 8.1 °F /  -13.3 °C 5.2 °F /  -14.9 °C 996.2 in /  33731.3 hPa Calm   1.6 mph /  2.6 km/h 82 % 0.0 in /  0 mm
19:21 8.0 °F /  -13.3 °C 5.3 °F /  -14.8 °C 996.2 in /  33731.3 hPa SE 1.4 mph /  2.3 km/h 1.6 mph /  2.6 km/h 83 % 0.0 in /  0 mm
19:27 7.9 °F /  -13.4 °C 5.4 °F /  -14.8 °C 996.5 in /  33741.5 hPa Calm   1.6 mph /  2.6 km/h 84 % 0.0 in /  0 mm
19:33 8.0 °F /  -13.3 °C 5.6 °F /  -14.7 °C 996.5 in /  33741.5 hPa SE 3.2 mph /  5.1 km/h 3.2 mph /  5.1 km/h 85 % 0.0 in /  0 mm
19:39 7.9 °F /  -13.4 °C 5.4 °F /  -14.8 °C 996.5 in /  33741.5 hPa SE 3.2 mph /  5.1 km/h 3.2 mph /  5.1 km/h 84 % 0.0 in /  0 mm
19:45 7.8 °F /  -13.4 °C 5.4 °F /  -14.8 °C 996.5 in /  33741.5 hPa SW 1.4 mph /  2.3 km/h 3.2 mph /  5.1 km/h 85 % 0.0 in /  0 mm
19:51 7.6 °F /  -13.6 °C 5.2 °F /  -14.9 °C 996.5 in /  33741.5 hPa Calm   1.6 mph /  2.6 km/h 85 % 0.0 in /  0 mm
19:57 7.3 °F /  -13.7 °C 5.1 °F /  -14.9 °C 996.5 in /  33741.5 hPa Calm     86 % 0.0 in /  0 mm
20:03 7.2 °F /  -13.8 °C 5.2 °F /  -14.9 °C 996.5 in /  33741.5 hPa Calm   1.6 mph /  2.6 km/h 87 % 0.0 in /  0 mm
20:09 6.9 °F /  -13.9 °C 4.7 °F /  -15.2 °C 996.8 in /  33751.6 hPa ESE 1.4 mph /  2.3 km/h 1.6 mph /  2.6 km/h 86 % 0.0 in /  0 mm
20:15 6.7 °F /  -14.1 °C 4.7 °F /  -15.2 °C 996.8 in /  33751.6 hPa Calm     87 % 0.0 in /  0 mm
20:21 6.6 °F /  -14.1 °C 4.6 °F /  -15.2 °C 996.5 in /  33741.5 hPa Calm   1.6 mph /  2.6 km/h 87 % 0.0 in /  0 mm
20:28 6.6 °F /  -14.1 °C 4.6 °F /  -15.2 °C 996.8 in /  33751.6 hPa Calm   1.6 mph /  2.6 km/h 87 % 0.0 in /  0 mm
20:34 6.5 °F /  -14.2 °C 4.5 °F /  -15.3 °C 996.8 in /  33751.6 hPa Calm   1.6 mph /  2.6 km/h 87 % 0.0 in /  0 mm
20:40 6.3 °F /  -14.3 °C 4.3 °F /  -15.4 °C 996.8 in /  33751.6 hPa Calm   1.6 mph /  2.6 km/h 87 % 0.0 in /  0 mm
20:46 6.2 °F /  -14.3 °C 4.4 °F /  -15.3 °C 996.8 in /  33751.6 hPa Calm     88 % 0.0 in /  0 mm
20:52 6.1 °F /  -14.4 °C 4.3 °F /  -15.4 °C 996.8 in /  33751.6 hPa Calm     88 % 0.0 in /  0 mm
20:58 5.9 °F /  -14.5 °C 4.1 °F /  -15.5 °C 996.8 in /  33751.6 hPa Calm   1.6 mph /  2.6 km/h 88 % 0.0 in /  0 mm
21:04 5.9 °F /  -14.5 °C 4.2 °F /  -15.4 °C 996.8 in /  33751.6 hPa Calm   1.6 mph /  2.6 km/h 89 % 0.0 in /  0 mm
21:10 5.8 °F /  -14.6 °C 4.1 °F /  -15.5 °C 996.8 in /  33751.6 hPa Calm   1.6 mph /  2.6 km/h 89 % 0.0 in /  0 mm
21:16 5.8 °F /  -14.6 °C 4.0 °F /  -15.6 °C 996.8 in /  33751.6 hPa Calm     88 % 0.0 in /  0 mm
21:22 5.8 °F /  -14.6 °C 3.8 °F /  -15.7 °C 996.8 in /  33751.6 hPa Calm     87 % 0.0 in /  0 mm
21:28 5.7 °F /  -14.6 °C 3.7 °F /  -15.7 °C 996.8 in /  33751.6 hPa Calm     87 % 0.0 in /  0 mm
21:34 5.6 °F /  -14.7 °C 3.6 °F /  -15.8 °C 997.2 in /  33765.2 hPa Calm     87 % 0.0 in /  0 mm
21:40 5.7 °F /  -14.6 °C 3.7 °F /  -15.7 °C 997.2 in /  33765.2 hPa Calm   1.6 mph /  2.6 km/h 87 % 0.0 in /  0 mm
21:46 5.5 °F /  -14.7 °C 3.5 °F /  -15.8 °C 997.2 in /  33765.2 hPa WNW 1.4 mph /  2.3 km/h 1.6 mph /  2.6 km/h 87 % 0.0 in /  0 mm
21:52 4.9 °F /  -15.1 °C 3.2 °F /  -16 °C 997.2 in /  33765.2 hPa WNW 1.4 mph /  2.3 km/h 1.6 mph /  2.6 km/h 89 % 0.0 in /  0 mm
21:58 4.7 °F /  -15.2 °C 3.2 °F /  -16 °C 997.5 in /  33775.4 hPa WSW 1.4 mph /  2.3 km/h 3.2 mph /  5.1 km/h 90 % 0.0 in /  0 mm
22:04 5.6 °F /  -14.7 °C 3.4 °F /  -15.9 °C 997.9 in /  33788.9 hPa SSW 3.2 mph /  5.1 km/h 8.0 mph /  12.9 km/h 86 % 0.0 in /  0 mm
22:10 5.7 °F /  -14.6 °C 3.2 °F /  -16 °C 997.2 in /  33765.2 hPa Calm   6.4 mph /  10.3 km/h 84 % 0.0 in /  0 mm
22:16 5.7 °F /  -14.6 °C 3.4 °F /  -15.9 °C 997.2 in /  33765.2 hPa Calm   3.2 mph /  5.1 km/h 85 % 0.0 in /  0 mm
22:22 5.6 °F /  -14.7 °C 3.4 °F /  -15.9 °C 997.2 in /  33765.2 hPa Calm   1.6 mph /  2.6 km/h 86 % 0.0 in /  0 mm
22:28 6.2 °F /  -14.3 °C 4.2 °F /  -15.4 °C 997.2 in /  33765.2 hPa SW 7.9 mph /  12.7 km/h 19.3 mph /  31.1 km/h 87 % 0.0 in /  0 mm
22:34 6.7 °F /  -14.1 °C 4.2 °F /  -15.4 °C 997.2 in /  33765.2 hPa SW 6.4 mph /  10.3 km/h 11.3 mph /  18.2 km/h 84 % 0.0 in /  0 mm
22:40 6.6 °F /  -14.1 °C 4.3 °F /  -15.4 °C 997.2 in /  33765.2 hPa SSE 1.4 mph /  2.3 km/h 3.2 mph /  5.1 km/h 85 % 0.0 in /  0 mm
22:46 6.4 °F /  -14.2 °C 4.1 °F /  -15.5 °C 997.2 in /  33765.2 hPa SSW 1.4 mph /  2.3 km/h 4.8 mph /  7.7 km/h 85 % 0.0 in /  0 mm
22:52 6.3 °F /  -14.3 °C 4.1 °F /  -15.5 °C 997.2 in /  33765.2 hPa SW 3.2 mph /  5.1 km/h 3.2 mph /  5.1 km/h 86 % 0.0 in /  0 mm
22:58 6.2 °F /  -14.3 °C 4.0 °F /  -15.6 °C 997.2 in /  33765.2 hPa SSW 1.4 mph /  2.3 km/h 3.2 mph /  5.1 km/h 86 % 0.0 in /  0 mm
23:04 6.2 °F /  -14.3 °C 4.0 °F /  -15.6 °C 997.2 in /  33765.2 hPa Calm     86 % 0.0 in /  0 mm
23:10 6.1 °F /  -14.4 °C 3.9 °F /  -15.6 °C 997.2 in /  33765.2 hPa Calm     86 % 0.0 in /  0 mm
23:16 5.8 °F /  -14.6 °C 3.6 °F /  -15.8 °C 997.2 in /  33765.2 hPa Calm     86 % 0.0 in /  0 mm
23:22 5.7 °F /  -14.6 °C 3.7 °F /  -15.7 °C 997.2 in /  33765.2 hPa Calm   1.6 mph /  2.6 km/h 87 % 0.0 in /  0 mm
23:28 5.8 °F /  -14.6 °C 3.8 °F /  -15.7 °C 997.2 in /  33765.2 hPa Calm     87 % 0.0 in /  0 mm
23:34 5.8 °F /  -14.6 °C 3.6 °F /  -15.8 °C 997.2 in /  33765.2 hPa NNW 1.4 mph /  2.3 km/h 1.6 mph /  2.6 km/h 86 % 0.0 in /  0 mm
23:40 5.5 °F /  -14.7 °C 3.5 °F /  -15.8 °C 997.5 in /  33775.4 hPa NNW 1.4 mph /  2.3 km/h 1.6 mph /  2.6 km/h 87 % 0.0 in /  0 mm
23:46 5.3 °F /  -14.8 °C 3.3 °F /  -15.9 °C 997.5 in /  33775.4 hPa North 1.4 mph /  2.3 km/h 1.6 mph /  2.6 km/h 87 % 0.0 in /  0 mm
23:52 5.2 °F /  -14.9 °C 3.4 °F /  -15.9 °C 997.5 in /  33775.4 hPa Calm   1.6 mph /  2.6 km/h 88 % 0.0 in /  0 mm
23:58 5.2 °F /  -14.9 °C 3.4 °F /  -15.9 °C 997.5 in /  33775.4 hPa Calm     88 % 0.0 in /  0 mm
Meteo18
Compliments of Weather Underground - 4 mb

Script developed by  Jim McMurry - jmcmurry@mwt.net Adapted for the template by  Wim van der Kuil - Leuven-Template.eu

You find our weather info also at:

European Weather Network

Weather Underground

Equipment we use:

Weather-station
Davis Vue

Weather-program
Meteobridge

Weather-server
Raspberry PI 2 B+

Provider
1 and 1

Davis Vue

Meteobridge

Raspberry PI 2 B+

1 and 1